METAR Formatted Surface Weather Observation
Issued by NWS

Home | Current Version | Previous Version | Text Only | Print | Product List | Glossary On
Versions: 1 2 3
000
SAUS45 KFGZ 221357
MTRRQE
METAR KRQE 221353Z AUTO 18003KT 10SM CLR 17/02 A3040 RMK AO2 SLP159
T01670022 TSNO



USA.gov is the U.S. government's official web portal to all federal, state and local government web resources and services.